createdAt,value
2017-03-23T00:00:33.527Z,0
2017-03-23T00:01:43.444Z,0
2017-03-23T00:02:53.388Z,0
2017-03-23T00:04:03.000Z,0
2017-03-23T00:05:12.535Z,0
2017-03-23T00:06:22.749Z,0
2017-03-23T00:07:32.700Z,0
2017-03-23T00:08:42.922Z,0
2017-03-23T00:09:52.821Z,0
2017-03-23T00:11:02.071Z,0
2017-03-23T00:12:12.283Z,0
2017-03-23T00:13:22.196Z,0
2017-03-23T00:14:32.109Z,0
2017-03-23T00:15:42.009Z,0
2017-03-23T00:16:52.257Z,0
2017-03-23T00:18:01.852Z,0
2017-03-23T00:19:11.442Z,0
2017-03-23T00:20:21.648Z,0
2017-03-23T00:21:31.547Z,0
2017-03-23T00:22:41.402Z,0
2017-03-23T00:23:51.615Z,0
2017-03-23T00:25:00.662Z,0
2017-03-23T00:26:10.575Z,0
2017-03-23T00:27:20.480Z,0
2017-03-23T00:28:30.387Z,0
2017-03-23T00:29:40.327Z,0
2017-03-23T00:30:50.542Z,0
2017-03-23T00:32:00.141Z,0
2017-03-23T00:33:10.041Z,0
2017-03-23T00:34:20.594Z,0
2017-03-23T00:35:30.507Z,0
2017-03-23T00:36:40.403Z,0
2017-03-23T00:37:50.699Z,0
2017-03-23T00:39:00.918Z,0
2017-03-23T00:40:10.015Z,0
2017-03-23T00:41:19.620Z,0
2017-03-23T00:42:29.539Z,0
2017-03-23T00:43:39.146Z,0
2017-03-23T00:44:48.744Z,0
2017-03-23T00:45:59.210Z,0
2017-03-23T00:47:09.419Z,0
2017-03-23T00:48:19.032Z,0
2017-03-23T00:49:29.235Z,0
2017-03-23T00:50:38.836Z,0
2017-03-23T00:51:49.147Z,0
2017-03-23T00:52:59.050Z,0
2017-03-23T00:54:09.307Z,0
2017-03-23T00:55:18.900Z,0
2017-03-23T00:56:29.104Z,0
2017-03-23T00:57:38.237Z,0
2017-03-23T00:58:47.838Z,0
2017-03-23T00:59:57.739Z,0
2017-03-23T01:01:07.327Z,0
2017-03-23T01:02:16.933Z,0
2017-03-23T01:03:27.085Z,0
2017-03-23T01:04:36.993Z,0
2017-03-23T01:05:46.900Z,0
2017-03-23T01:06:56.825Z,0
2017-03-23T01:08:07.061Z,0
2017-03-23T01:09:16.401Z,0
2017-03-23T01:10:26.303Z,0
2017-03-23T01:11:36.206Z,0
2017-03-23T01:12:45.807Z,0
2017-03-23T01:13:55.411Z,0
2017-03-23T01:15:04.946Z,0
2017-03-23T01:16:14.856Z,0
2017-03-23T01:17:24.755Z,0
2017-03-23T01:18:34.648Z,0
2017-03-23T01:19:44.570Z,0
2017-03-23T01:20:54.477Z,0
2017-03-23T01:22:04.387Z,0
2017-03-23T01:23:14.313Z,0
2017-03-23T01:24:24.225Z,0
2017-03-23T01:25:33.869Z,0
2017-03-23T01:26:43.771Z,0
2017-03-23T01:27:53.062Z,0
2017-03-23T01:29:02.408Z,0
2017-03-23T01:30:12.321Z,0
2017-03-23T01:31:22.230Z,0
2017-03-23T01:32:33.202Z,0
2017-03-23T01:33:43.408Z,0
2017-03-23T01:34:53.337Z,0
2017-03-23T01:36:03.548Z,0
2017-03-23T01:37:13.165Z,0
2017-03-23T01:38:23.076Z,0
2017-03-23T01:39:32.375Z,0
2017-03-23T01:40:42.581Z,0
2017-03-23T01:41:52.501Z,0
2017-03-23T01:43:02.140Z,0
2017-03-23T01:44:12.395Z,0
2017-03-23T01:45:22.303Z,0
2017-03-23T01:46:32.527Z,0
2017-03-23T01:47:42.439Z,0
2017-03-23T01:48:52.044Z,0
2017-03-23T01:50:02.673Z,0
2017-03-23T01:51:12.573Z,0
2017-03-23T01:52:21.876Z,0
2017-03-23T01:53:31.774Z,0
2017-03-23T01:54:41.368Z,0
2017-03-23T01:55:51.381Z,0
2017-03-23T01:57:01.595Z,0
2017-03-23T01:58:10.905Z,0
2017-03-23T01:59:21.110Z,0
2017-03-23T02:00:31.021Z,0
2017-03-23T02:01:40.863Z,0
2017-03-23T02:02:51.088Z,0
2017-03-23T02:04:01.290Z,0
2017-03-23T02:05:11.187Z,0
2017-03-23T02:06:21.398Z,0
2017-03-23T02:07:31.702Z,0
2017-03-23T02:08:41.302Z,0
2017-03-23T02:09:51.216Z,0
2017-03-23T02:11:01.111Z,0
2017-03-23T02:12:11.328Z,0
2017-03-23T02:13:21.898Z,0
2017-03-23T02:14:31.830Z,0
2017-03-23T02:15:41.745Z,0
2017-03-23T02:16:51.664Z,0
2017-03-23T02:18:01.264Z,0
2017-03-23T02:19:11.232Z,0
2017-03-23T02:20:20.829Z,0
2017-03-23T02:21:31.054Z,0
2017-03-23T02:22:40.654Z,0
2017-03-23T02:23:50.245Z,0
2017-03-23T02:25:00.246Z,0
2017-03-23T02:26:10.148Z,0
2017-03-23T02:27:20.056Z,0
2017-03-23T02:28:29.962Z,0
2017-03-23T02:29:39.876Z,0
2017-03-23T02:30:49.831Z,0
2017-03-23T02:31:59.741Z,0
2017-03-23T02:33:09.950Z,0
2017-03-23T02:34:19.916Z,0
2017-03-23T02:35:30.142Z,0
2017-03-23T02:36:39.897Z,0
2017-03-23T02:37:49.191Z,0
2017-03-23T02:38:59.399Z,0
2017-03-23T02:40:09.316Z,0
2017-03-23T02:41:18.921Z,0
2017-03-23T02:42:29.137Z,0
2017-03-23T02:43:38.728Z,0
2017-03-23T02:44:48.627Z,0
2017-03-23T02:45:58.854Z,0
2017-03-23T02:47:09.082Z,0
2017-03-23T02:48:19.671Z,0
2017-03-23T02:49:29.887Z,0
2017-03-23T02:50:39.532Z,0
2017-03-23T02:51:49.148Z,0
2017-03-23T02:52:58.740Z,0
2017-03-23T02:54:08.490Z,0
2017-03-23T02:55:18.393Z,0
2017-03-23T02:56:28.315Z,0
2017-03-23T02:57:38.529Z,0
2017-03-23T02:58:48.448Z,0
2017-03-23T02:59:58.166Z,0
2017-03-23T03:01:08.070Z,0
2017-03-23T03:02:18.270Z,0
2017-03-23T03:03:28.208Z,0
2017-03-23T03:04:38.426Z,0
2017-03-23T03:05:48.930Z,0
2017-03-23T03:06:58.216Z,0
2017-03-23T03:08:07.817Z,0
2017-03-23T03:09:18.053Z,0
2017-03-23T03:10:27.648Z,0
2017-03-23T03:11:37.335Z,0
2017-03-23T03:12:46.622Z,0
2017-03-23T03:13:56.516Z,0
2017-03-23T03:15:06.422Z,0
2017-03-23T03:16:15.710Z,0
2017-03-23T03:17:25.455Z,0
2017-03-23T03:18:35.355Z,0
2017-03-23T03:19:44.642Z,0
2017-03-23T03:20:54.561Z,0
2017-03-23T03:22:03.872Z,0
2017-03-23T03:23:14.376Z,0
2017-03-23T03:24:24.584Z,0
2017-03-23T03:25:33.870Z,0
2017-03-23T03:26:43.461Z,0
2017-03-23T03:27:52.477Z,0
2017-03-23T03:29:02.725Z,0
2017-03-23T03:30:12.636Z,0
2017-03-23T03:31:21.920Z,0
2017-03-23T03:32:32.136Z,0
2017-03-23T03:33:42.066Z,0
2017-03-23T03:34:52.124Z,0
2017-03-23T03:36:01.411Z,0
2017-03-23T03:37:11.635Z,0
2017-03-23T03:38:21.255Z,0
2017-03-23T03:39:30.862Z,0
2017-03-23T03:40:40.605Z,0
2017-03-23T03:41:50.193Z,0
2017-03-23T03:43:00.145Z,0
2017-03-23T03:44:10.353Z,0
2017-03-23T03:45:20.277Z,0
2017-03-23T03:46:30.331Z,0
2017-03-23T03:47:40.946Z,0
2017-03-23T03:48:51.156Z,0
2017-03-23T03:50:01.053Z,0
2017-03-23T03:51:10.642Z,0
2017-03-23T03:52:20.857Z,0
2017-03-23T03:53:30.145Z,0
2017-03-23T03:54:39.739Z,0
2017-03-23T03:55:49.955Z,0
2017-03-23T03:56:58.938Z,0
2017-03-23T03:58:08.837Z,0
2017-03-23T03:59:18.740Z,0
2017-03-23T04:00:28.699Z,0
2017-03-23T04:01:38.615Z,0
2017-03-23T04:02:47.941Z,0
2017-03-23T04:03:58.001Z,0
2017-03-23T04:05:07.942Z,0
2017-03-23T04:06:17.233Z,0
2017-03-23T04:07:27.146Z,0
2017-03-23T04:08:37.056Z,0
2017-03-23T04:09:47.051Z,0
2017-03-23T04:10:56.964Z,0
2017-03-23T04:12:07.169Z,0
2017-03-23T04:13:17.067Z,0
2017-03-23T04:14:27.284Z,0
2017-03-23T04:15:37.292Z,0
2017-03-23T04:16:47.501Z,0
2017-03-23T04:17:56.808Z,0
2017-03-23T04:19:07.036Z,0
2017-03-23T04:20:17.240Z,0
2017-03-23T04:21:27.606Z,0
2017-03-23T04:22:37.505Z,0
2017-03-23T04:23:47.101Z,0
2017-03-23T04:24:57.311Z,0
2017-03-23T04:26:07.209Z,0
2017-03-23T04:27:17.911Z,0
2017-03-23T04:28:27.828Z,0
2017-03-23T04:29:37.426Z,0
2017-03-23T04:30:47.328Z,0
2017-03-23T04:31:57.225Z,0
2017-03-23T04:33:07.170Z,0
2017-03-23T04:34:16.762Z,0
2017-03-23T04:35:26.670Z,0
2017-03-23T04:36:36.580Z,0
2017-03-23T04:37:46.475Z,0
2017-03-23T04:38:56.725Z,0
2017-03-23T04:40:06.928Z,0
2017-03-23T04:41:17.143Z,0
2017-03-23T04:42:27.073Z,0
2017-03-23T04:43:36.976Z,0
2017-03-23T04:44:47.476Z,0
2017-03-23T04:45:57.388Z,0
2017-03-23T04:47:07.608Z,0
2017-03-23T04:48:17.506Z,0
2017-03-23T04:49:27.411Z,0
2017-03-23T04:50:37.573Z,0
2017-03-23T04:51:46.566Z,0
2017-03-23T04:52:56.466Z,0
2017-03-23T04:54:06.716Z,0
2017-03-23T04:55:16.311Z,0
2017-03-23T04:56:26.571Z,0
2017-03-23T04:57:36.782Z,0
2017-03-23T04:58:46.412Z,0
2017-03-23T04:59:56.320Z,0
2017-03-23T05:01:06.227Z,0
2017-03-23T05:02:16.372Z,0
2017-03-23T05:03:26.581Z,0
2017-03-23T05:04:36.482Z,4
2017-03-23T05:05:46.091Z,4
2017-03-23T05:06:56.329Z,0
2017-03-23T05:08:06.286Z,4
2017-03-23T05:09:16.492Z,8
2017-03-23T05:10:26.392Z,4
2017-03-23T05:11:36.303Z,4
2017-03-23T05:12:46.218Z,8
2017-03-23T05:13:55.707Z,8
2017-03-23T05:15:05.988Z,12
2017-03-23T05:16:15.590Z,12
2017-03-23T05:17:25.499Z,16
2017-03-23T05:18:36.070Z,20
2017-03-23T05:19:46.533Z,24
2017-03-23T05:20:56.444Z,28
2017-03-23T05:22:06.358Z,32
2017-03-23T05:23:16.566Z,36
2017-03-23T05:24:26.162Z,36
2017-03-23T05:25:36.683Z,44
2017-03-23T05:26:45.682Z,52
2017-03-23T05:27:55.293Z,60
2017-03-23T05:29:04.917Z,64
2017-03-23T05:30:14.530Z,76
2017-03-23T05:31:24.796Z,80
2017-03-23T05:32:34.174Z,88
2017-03-23T05:33:43.789Z,100
2017-03-23T05:34:53.698Z,112
2017-03-23T05:36:03.313Z,132
2017-03-23T05:37:13.063Z,148
2017-03-23T05:38:22.985Z,168
2017-03-23T05:39:32.889Z,188
2017-03-23T05:40:43.113Z,208
2017-03-23T05:41:52.720Z,224
2017-03-23T05:43:02.478Z,236
2017-03-23T05:44:12.396Z,248
2017-03-23T05:45:21.699Z,264
2017-03-23T05:46:31.924Z,276
2017-03-23T05:47:41.847Z,284
2017-03-23T05:48:52.075Z,280
2017-03-23T05:50:01.998Z,280
2017-03-23T05:51:11.630Z,300
2017-03-23T05:52:21.526Z,328
2017-03-23T05:53:31.131Z,320
2017-03-23T05:54:40.888Z,280
2017-03-23T05:55:51.113Z,276
2017-03-23T05:57:00.706Z,316
2017-03-23T05:58:10.330Z,380
2017-03-23T05:59:19.612Z,412
2017-03-23T06:00:30.214Z,464
2017-03-23T06:01:40.446Z,504
2017-03-23T06:02:50.383Z,488
2017-03-23T06:04:00.598Z,484
2017-03-23T06:05:10.535Z,468
2017-03-23T06:06:20.740Z,464
2017-03-23T06:07:30.650Z,516
2017-03-23T06:08:40.283Z,592
2017-03-23T06:09:49.311Z,676
2017-03-23T06:10:59.235Z,708
2017-03-23T06:12:09.148Z,708
2017-03-23T06:13:19.365Z,764
2017-03-23T06:14:29.274Z,816
2017-03-23T06:15:39.551Z,872
2017-03-23T06:16:49.785Z,904
2017-03-23T06:18:00.053Z,936
2017-03-23T06:19:10.310Z,964
2017-03-23T06:20:19.912Z,984
2017-03-23T06:21:29.819Z,1000
2017-03-23T06:22:39.426Z,1024
2017-03-23T06:23:49.478Z,1048
2017-03-23T06:24:59.689Z,1076
2017-03-23T06:26:08.990Z,1096
2017-03-23T06:27:18.908Z,1128
2017-03-23T06:28:28.513Z,1168
2017-03-23T06:29:38.257Z,1208
2017-03-23T06:30:48.493Z,1256
2017-03-23T06:31:58.407Z,1296
2017-03-23T06:33:08.630Z,1344
2017-03-23T06:34:18.551Z,1388
2017-03-23T06:35:29.386Z,1408
2017-03-23T06:36:39.347Z,1452
2017-03-23T06:37:49.577Z,1456
2017-03-23T06:38:59.477Z,1444
2017-03-23T06:40:09.397Z,1444
2017-03-23T06:41:19.353Z,1440
2017-03-23T06:42:28.685Z,1376
2017-03-23T06:43:38.291Z,1296
2017-03-23T06:44:48.493Z,1300
2017-03-23T06:45:58.709Z,1320
2017-03-23T06:47:09.312Z,1236
2017-03-23T06:48:19.522Z,1168
2017-03-23T06:49:29.745Z,1136
2017-03-23T06:50:39.335Z,1096
2017-03-23T06:51:49.549Z,1104
2017-03-23T06:53:00.067Z,1132
2017-03-23T06:54:09.976Z,1176
2017-03-23T06:55:19.881Z,1164
2017-03-23T06:56:29.791Z,1156
2017-03-23T06:57:39.423Z,1200
2017-03-23T06:58:49.031Z,1264
2017-03-23T06:59:58.939Z,1280
2017-03-23T07:01:09.157Z,1296
2017-03-23T07:02:18.453Z,1380
2017-03-23T07:03:28.380Z,1540
2017-03-23T07:04:38.735Z,1664
2017-03-23T07:05:48.324Z,1596
2017-03-23T07:06:57.927Z,1628
2017-03-23T07:08:08.146Z,1664
2017-03-23T07:09:18.066Z,1700
2017-03-23T07:10:28.331Z,1736
2017-03-23T07:11:38.554Z,1732
2017-03-23T07:12:48.767Z,1824
2017-03-23T07:13:58.725Z,1964
2017-03-23T07:15:08.626Z,1956
2017-03-23T07:16:18.521Z,1912
2017-03-23T07:17:28.424Z,1896
2017-03-23T07:18:38.033Z,1872
2017-03-23T07:19:47.936Z,1980
2017-03-23T07:20:57.851Z,1968
2017-03-23T07:22:08.308Z,1996
2017-03-23T07:23:18.526Z,2028
2017-03-23T07:24:28.129Z,2092
2017-03-23T07:25:38.040Z,2152
2017-03-23T07:26:47.342Z,2188
2017-03-23T07:27:57.095Z,2224
2017-03-23T07:29:07.007Z,2264
2017-03-23T07:30:16.917Z,2284
2017-03-23T07:31:26.857Z,2316
2017-03-23T07:32:37.452Z,2332
2017-03-23T07:33:47.462Z,2428
2017-03-23T07:34:57.375Z,2464
2017-03-23T07:36:06.667Z,2368
2017-03-23T07:37:16.278Z,2356
2017-03-23T07:38:25.899Z,2312
2017-03-23T07:39:35.314Z,2240
2017-03-23T07:40:45.230Z,2268
2017-03-23T07:41:54.868Z,2256
2017-03-23T07:43:04.812Z,2148
2017-03-23T07:44:14.149Z,2156
2017-03-23T07:45:23.782Z,2284
2017-03-23T07:46:33.695Z,2400
2017-03-23T07:47:43.907Z,2344
2017-03-23T07:48:53.207Z,2328
2017-03-23T07:50:03.120Z,2228
2017-03-23T07:51:13.682Z,2120
2017-03-23T07:52:23.603Z,2136
2017-03-23T07:53:32.909Z,2180
2017-03-23T07:54:42.810Z,2256
2017-03-23T07:55:52.411Z,2232
2017-03-23T07:57:02.618Z,2148
2017-03-23T07:58:12.212Z,2260
2017-03-23T07:59:22.439Z,2220
2017-03-23T08:00:32.665Z,2172
2017-03-23T08:01:42.584Z,2176
2017-03-23T08:02:52.054Z,2276
2017-03-23T08:04:01.673Z,2256
2017-03-23T08:05:11.601Z,2192
2017-03-23T08:06:21.563Z,2152
2017-03-23T08:07:31.481Z,2132
2017-03-23T08:08:41.340Z,2072
2017-03-23T08:09:50.934Z,2040
2017-03-23T08:11:00.233Z,2048
2017-03-23T08:12:09.830Z,2052
2017-03-23T08:13:19.443Z,2052
2017-03-23T08:14:29.504Z,2064
2017-03-23T08:15:39.405Z,2012
2017-03-23T08:16:49.629Z,2020
2017-03-23T08:17:59.547Z,1996
2017-03-23T08:19:09.764Z,1948
2017-03-23T08:20:19.783Z,1924
2017-03-23T08:21:30.008Z,1936
2017-03-23T08:22:39.918Z,1884
2017-03-23T08:23:50.128Z,1840
2017-03-23T08:25:00.036Z,1872
2017-03-23T08:26:11.267Z,1824
2017-03-23T08:27:21.193Z,1912
2017-03-23T08:28:30.794Z,2008
2017-03-23T08:29:41.051Z,1948
2017-03-23T08:30:50.656Z,1860
2017-03-23T08:32:01.257Z,1752
2017-03-23T08:33:11.475Z,1808
2017-03-23T08:34:21.379Z,1832
2017-03-23T08:35:30.993Z,1772
2017-03-23T08:36:41.243Z,1880
2017-03-23T08:37:51.199Z,1696
2017-03-23T08:39:00.816Z,1688
2017-03-23T08:40:10.420Z,1696
2017-03-23T08:41:19.719Z,1600
2017-03-23T08:42:29.322Z,1628
2017-03-23T08:43:38.577Z,1724
2017-03-23T08:44:48.487Z,1720
2017-03-23T08:45:58.114Z,1724
2017-03-23T08:47:08.044Z,1776
2017-03-23T08:48:18.270Z,1756
2017-03-23T08:49:27.983Z,1712
2017-03-23T08:50:37.280Z,1668
2017-03-23T08:51:47.525Z,1600
2017-03-23T08:52:57.738Z,1620
2017-03-23T08:54:07.958Z,1620
2017-03-23T08:55:17.820Z,1592
2017-03-23T08:56:28.044Z,1560
2017-03-23T08:57:38.268Z,1524
2017-03-23T08:58:48.183Z,1516
2017-03-23T08:59:58.087Z,1552
2017-03-23T09:01:08.145Z,1572
2017-03-23T09:02:17.753Z,1556
2017-03-23T09:03:27.689Z,1512
2017-03-23T09:04:37.288Z,1512
2017-03-23T09:05:47.527Z,1512
2017-03-23T09:06:57.141Z,1512
2017-03-23T09:08:07.063Z,1488
2017-03-23T09:09:17.280Z,1480
2017-03-23T09:10:26.899Z,1480
2017-03-23T09:11:36.506Z,1488
2017-03-23T09:12:46.808Z,1504
2017-03-23T09:13:56.729Z,1492
2017-03-23T09:15:06.342Z,1476
2017-03-23T09:16:15.956Z,1464
2017-03-23T09:17:25.415Z,1460
2017-03-23T09:18:35.762Z,1452
2017-03-23T09:19:45.664Z,1448
2017-03-23T09:20:55.573Z,1448
2017-03-23T09:22:05.483Z,1432
2017-03-23T09:23:14.481Z,1420
2017-03-23T09:24:24.325Z,1400
2017-03-23T09:25:33.924Z,1368
2017-03-23T09:26:43.835Z,1348
2017-03-23T09:27:54.048Z,1332
2017-03-23T09:29:03.646Z,1332
2017-03-23T09:30:14.014Z,1324
2017-03-23T09:31:23.613Z,1328
2017-03-23T09:32:32.916Z,1324
2017-03-23T09:33:42.821Z,1304
2017-03-23T09:34:53.041Z,1312
2017-03-23T09:36:03.408Z,1316
2017-03-23T09:37:13.313Z,1304
2017-03-23T09:38:22.920Z,1300
2017-03-23T09:39:32.525Z,1304
2017-03-23T09:40:41.922Z,1308
2017-03-23T09:41:51.627Z,1312
2017-03-23T09:43:01.228Z,1312
2017-03-23T09:44:10.843Z,1308
2017-03-23T09:45:20.469Z,1304
2017-03-23T09:46:30.384Z,1308
2017-03-23T09:47:40.147Z,1292
2017-03-23T09:48:50.054Z,1280
2017-03-23T09:49:59.964Z,1256
2017-03-23T09:51:09.578Z,1240
2017-03-23T09:52:19.787Z,1216
2017-03-23T09:53:29.811Z,1176
2017-03-23T09:54:40.026Z,1200
2017-03-23T09:55:49.946Z,1184
2017-03-23T09:56:59.555Z,1164
2017-03-23T09:58:09.768Z,1160
2017-03-23T09:59:19.618Z,1160
2017-03-23T10:00:29.519Z,1156
2017-03-23T10:01:39.429Z,1164
2017-03-23T10:02:49.045Z,1184
2017-03-23T10:03:58.343Z,1212
2017-03-23T10:05:08.898Z,1216
2017-03-23T10:06:18.201Z,1188
2017-03-23T10:07:28.098Z,1164
2017-03-23T10:08:38.043Z,1136
2017-03-23T10:09:47.345Z,1116
2017-03-23T10:10:57.681Z,1100
2017-03-23T10:12:07.599Z,1088
2017-03-23T10:13:17.812Z,1076
2017-03-23T10:14:27.418Z,1052
2017-03-23T10:15:37.026Z,1024
2017-03-23T10:16:47.105Z,1004
2017-03-23T10:17:56.718Z,984
2017-03-23T10:19:06.646Z,968
2017-03-23T10:20:16.563Z,960
2017-03-23T10:21:26.774Z,952
2017-03-23T10:22:37.533Z,940
2017-03-23T10:23:47.134Z,932
2017-03-23T10:24:56.734Z,932
2017-03-23T10:26:06.387Z,932
2017-03-23T10:27:15.401Z,928
2017-03-23T10:28:25.567Z,920
2017-03-23T10:29:35.837Z,908
2017-03-23T10:30:46.062Z,904
2017-03-23T10:31:55.675Z,900
2017-03-23T10:33:05.631Z,900
2017-03-23T10:34:16.144Z,896
2017-03-23T10:35:26.362Z,892
2017-03-23T10:36:36.271Z,888
2017-03-23T10:37:45.878Z,880
2017-03-23T10:38:55.786Z,872
2017-03-23T10:40:05.934Z,860
2017-03-23T10:41:15.541Z,860
2017-03-23T10:42:25.456Z,860
2017-03-23T10:43:35.354Z,864
2017-03-23T10:44:44.949Z,860
2017-03-23T10:45:55.522Z,852
2017-03-23T10:47:04.827Z,852
2017-03-23T10:48:14.766Z,852
2017-03-23T10:49:24.991Z,844
2017-03-23T10:50:34.586Z,844
2017-03-23T10:51:44.588Z,852
2017-03-23T10:52:54.502Z,852
2017-03-23T10:54:04.099Z,852
2017-03-23T10:55:13.715Z,852
2017-03-23T10:56:23.626Z,848
2017-03-23T10:57:34.078Z,848
2017-03-23T10:58:43.986Z,844
2017-03-23T10:59:53.586Z,852
2017-03-23T11:01:03.510Z,848
2017-03-23T11:02:13.408Z,832
2017-03-23T11:03:23.776Z,824
2017-03-23T11:04:33.677Z,820
2017-03-23T11:05:43.902Z,824
2017-03-23T11:06:53.813Z,824
2017-03-23T11:08:04.397Z,824
2017-03-23T11:09:15.237Z,816
2017-03-23T11:10:25.455Z,816
2017-03-23T11:11:35.356Z,808
2017-03-23T11:12:45.267Z,804
2017-03-23T11:13:54.564Z,800
2017-03-23T11:15:04.730Z,800
2017-03-23T11:16:14.023Z,796
2017-03-23T11:17:24.233Z,792
2017-03-23T11:18:33.528Z,792
2017-03-23T11:19:43.135Z,788
2017-03-23T11:20:53.606Z,776
2017-03-23T11:22:03.500Z,764
2017-03-23T11:23:13.091Z,760
2017-03-23T11:24:23.014Z,760
2017-03-23T11:25:33.252Z,760
2017-03-23T11:26:43.045Z,756
2017-03-23T11:27:53.266Z,748
2017-03-23T11:29:02.572Z,744
2017-03-23T11:30:12.498Z,740
2017-03-23T11:31:22.714Z,740
2017-03-23T11:32:32.868Z,736
2017-03-23T11:33:43.094Z,732
2017-03-23T11:34:53.004Z,728
2017-03-23T11:36:03.219Z,728
2017-03-23T11:37:12.513Z,732
2017-03-23T11:38:22.579Z,732
2017-03-23T11:39:32.220Z,732
2017-03-23T11:40:41.513Z,728
2017-03-23T11:41:51.437Z,732
2017-03-23T11:43:01.659Z,728
2017-03-23T11:44:11.563Z,728
2017-03-23T11:45:21.782Z,724
2017-03-23T11:46:32.019Z,720
2017-03-23T11:47:41.619Z,712
2017-03-23T11:48:51.896Z,716
2017-03-23T11:50:01.852Z,720
2017-03-23T11:51:12.075Z,728
2017-03-23T11:52:21.697Z,736
2017-03-23T11:53:31.606Z,740
2017-03-23T11:54:41.216Z,740
2017-03-23T11:55:51.363Z,740
2017-03-23T11:57:01.265Z,740
2017-03-23T11:58:10.873Z,720
2017-03-23T11:59:20.771Z,728
2017-03-23T12:00:30.064Z,736
2017-03-23T12:01:40.401Z,744
2017-03-23T12:02:49.714Z,744
2017-03-23T12:03:59.348Z,744
2017-03-23T12:05:09.293Z,740
2017-03-23T12:06:19.206Z,748
2017-03-23T12:07:29.165Z,760
2017-03-23T12:08:39.093Z,752
2017-03-23T12:09:48.389Z,744
2017-03-23T12:10:58.008Z,744
2017-03-23T12:12:08.248Z,748
2017-03-23T12:13:18.440Z,748
2017-03-23T12:14:28.061Z,752
2017-03-23T12:15:37.080Z,756
2017-03-23T12:16:46.389Z,748
2017-03-23T12:17:56.026Z,748
2017-03-23T12:19:05.764Z,748
2017-03-23T12:20:16.015Z,744
2017-03-23T12:21:26.249Z,748
2017-03-23T12:22:35.868Z,744
2017-03-23T12:23:45.821Z,724
2017-03-23T12:24:55.051Z,732
2017-03-23T12:26:04.976Z,720
2017-03-23T12:27:14.927Z,720
2017-03-23T12:28:24.567Z,716
2017-03-23T12:29:34.823Z,732
2017-03-23T12:30:45.112Z,752
2017-03-23T12:31:55.030Z,776
2017-03-23T12:33:05.258Z,792
2017-03-23T12:34:14.682Z,800
2017-03-23T12:35:24.308Z,820
2017-03-23T12:36:34.374Z,828
2017-03-23T12:37:43.671Z,828
2017-03-23T12:38:53.579Z,832
2017-03-23T12:40:03.492Z,844
2017-03-23T12:41:13.397Z,812
2017-03-23T12:42:23.040Z,788
2017-03-23T12:43:32.030Z,780
2017-03-23T12:44:41.342Z,828
2017-03-23T12:45:51.275Z,836
2017-03-23T12:47:00.884Z,880
2017-03-23T12:48:10.945Z,900
2017-03-23T12:49:20.866Z,884
2017-03-23T12:50:30.482Z,936
2017-03-23T12:51:39.779Z,924
2017-03-23T12:52:49.703Z,908
2017-03-23T12:53:59.867Z,904
2017-03-23T12:55:10.085Z,936
2017-03-23T12:56:20.010Z,908
2017-03-23T12:57:29.927Z,912
2017-03-23T12:58:38.952Z,896
2017-03-23T12:59:49.466Z,904
2017-03-23T13:00:59.093Z,912
2017-03-23T13:02:08.713Z,916
2017-03-23T13:03:18.618Z,940
2017-03-23T13:04:28.220Z,948
2017-03-23T13:05:39.032Z,948
2017-03-23T13:06:48.955Z,956
2017-03-23T13:07:58.862Z,964
2017-03-23T13:09:08.470Z,988
2017-03-23T13:10:18.431Z,1012
2017-03-23T13:11:28.507Z,1004
2017-03-23T13:12:38.425Z,976
2017-03-23T13:13:48.343Z,896
2017-03-23T13:14:58.264Z,840
2017-03-23T13:16:08.498Z,824
2017-03-23T13:17:18.700Z,820
2017-03-23T13:18:28.603Z,880
2017-03-23T13:19:38.631Z,904
2017-03-23T13:20:48.591Z,908
2017-03-23T13:21:58.240Z,936
2017-03-23T13:23:07.845Z,964
2017-03-23T13:24:17.742Z,992
2017-03-23T13:25:27.346Z,1004
2017-03-23T13:26:37.250Z,1044
2017-03-23T13:27:46.542Z,1116
2017-03-23T13:28:55.993Z,1132
2017-03-23T13:30:05.593Z,1072
2017-03-23T13:31:15.507Z,916
2017-03-23T13:32:25.419Z,860
2017-03-23T13:33:35.705Z,868
2017-03-23T13:34:46.171Z,908
2017-03-23T13:35:56.098Z,872
2017-03-23T13:37:06.067Z,860
2017-03-23T13:38:15.989Z,860
2017-03-23T13:39:25.914Z,936
2017-03-23T13:40:36.134Z,932
2017-03-23T13:41:46.057Z,1024
2017-03-23T13:42:55.975Z,1188
2017-03-23T13:44:05.914Z,1300
2017-03-23T13:45:15.829Z,1324
2017-03-23T13:46:25.793Z,1376
2017-03-23T13:47:38.497Z,1420
2017-03-23T13:48:48.436Z,1436
2017-03-23T13:49:59.049Z,1436
2017-03-23T13:51:09.258Z,1416
2017-03-23T13:52:19.486Z,1376
2017-03-23T13:53:29.083Z,1284
2017-03-23T13:54:38.991Z,1208
2017-03-23T13:55:48.590Z,1164
2017-03-23T13:56:58.802Z,1132
2017-03-23T13:58:08.843Z,1104
2017-03-23T13:59:18.433Z,1076
2017-03-23T14:00:28.334Z,1052
2017-03-23T14:01:37.624Z,1024
2017-03-23T14:02:47.237Z,1000
2017-03-23T14:03:57.436Z,976
2017-03-23T14:05:07.344Z,944
2017-03-23T14:06:16.647Z,936
2017-03-23T14:07:26.856Z,940
2017-03-23T14:08:36.471Z,940
2017-03-23T14:09:46.839Z,912
2017-03-23T14:10:56.771Z,888
2017-03-23T14:12:06.670Z,876
2017-03-23T14:13:16.282Z,872
2017-03-23T14:14:26.498Z,784
2017-03-23T14:15:36.764Z,812
2017-03-23T14:16:46.069Z,812
2017-03-23T14:17:55.984Z,784
2017-03-23T14:19:05.967Z,832
2017-03-23T14:20:15.889Z,832
2017-03-23T14:21:25.639Z,836
2017-03-23T14:22:35.539Z,836
2017-03-23T14:23:45.127Z,840
2017-03-23T14:24:54.723Z,812
2017-03-23T14:26:04.650Z,808
2017-03-23T14:27:14.865Z,772
2017-03-23T14:28:24.155Z,636
2017-03-23T14:29:33.763Z,700
2017-03-23T14:30:43.374Z,796
2017-03-23T14:31:52.962Z,808
2017-03-23T14:33:03.778Z,816
2017-03-23T14:34:13.695Z,816
2017-03-23T14:35:23.609Z,808
2017-03-23T14:36:33.533Z,804
2017-03-23T14:37:43.747Z,796
2017-03-23T14:38:53.462Z,788
2017-03-23T14:40:02.762Z,800
2017-03-23T14:41:12.369Z,804
2017-03-23T14:42:21.674Z,820
2017-03-23T14:43:31.910Z,828
2017-03-23T14:44:41.971Z,840
2017-03-23T14:45:51.886Z,872
2017-03-23T14:47:01.801Z,908
2017-03-23T14:48:12.066Z,900
2017-03-23T14:49:21.671Z,892
2017-03-23T14:50:32.026Z,872
2017-03-23T14:51:41.332Z,848
2017-03-23T14:52:50.628Z,832
2017-03-23T14:54:00.232Z,832
2017-03-23T14:55:09.552Z,832
2017-03-23T14:56:19.190Z,820
2017-03-23T14:57:29.100Z,852
2017-03-23T14:58:39.328Z,848
2017-03-23T14:59:49.260Z,868
2017-03-23T15:00:59.175Z,832
2017-03-23T15:02:09.153Z,816
2017-03-23T15:03:19.064Z,800
2017-03-23T15:04:28.978Z,804
2017-03-23T15:05:38.574Z,796
2017-03-23T15:06:48.183Z,792
2017-03-23T15:07:58.696Z,788
2017-03-23T15:09:08.926Z,784
2017-03-23T15:10:19.148Z,784
2017-03-23T15:11:29.062Z,780
2017-03-23T15:12:39.293Z,776
2017-03-23T15:13:49.495Z,768
2017-03-23T15:14:59.711Z,752
2017-03-23T15:16:09.339Z,756
2017-03-23T15:17:19.259Z,712
2017-03-23T15:18:29.183Z,748
2017-03-23T15:19:39.397Z,744
2017-03-23T15:20:49.309Z,740
2017-03-23T15:21:58.619Z,724
2017-03-23T15:23:08.224Z,708
2017-03-23T15:24:18.132Z,652
2017-03-23T15:25:28.494Z,620
2017-03-23T15:26:38.709Z,688
2017-03-23T15:27:48.916Z,640
2017-03-23T15:28:58.822Z,684
2017-03-23T15:30:09.040Z,636
2017-03-23T15:31:19.003Z,680
2017-03-23T15:32:28.619Z,636
2017-03-23T15:33:38.224Z,536
2017-03-23T15:34:48.152Z,524
2017-03-23T15:35:57.758Z,532
2017-03-23T15:37:08.109Z,664
2017-03-23T15:38:18.324Z,664
2017-03-23T15:39:27.634Z,632
2017-03-23T15:40:36.938Z,592
2017-03-23T15:41:46.850Z,576
2017-03-23T15:42:57.976Z,540
2017-03-23T15:44:07.618Z,516
2017-03-23T15:45:17.844Z,524
2017-03-23T15:46:27.766Z,544
2017-03-23T15:47:37.674Z,544
2017-03-23T15:48:47.891Z,584
2017-03-23T15:49:57.872Z,544
2017-03-23T15:51:08.795Z,572
2017-03-23T15:52:18.447Z,592
2017-03-23T15:53:28.413Z,592
2017-03-23T15:54:38.704Z,600
2017-03-23T15:55:48.682Z,600
2017-03-23T15:56:58.637Z,608
2017-03-23T15:58:08.586Z,604
2017-03-23T15:59:18.189Z,632
2017-03-23T16:00:28.885Z,652
2017-03-23T16:01:38.815Z,680
2017-03-23T16:02:48.416Z,704
2017-03-23T16:03:58.333Z,676
2017-03-23T16:05:08.562Z,636
2017-03-23T16:06:18.482Z,624
2017-03-23T16:07:28.109Z,664
2017-03-23T16:08:38.031Z,700
2017-03-23T16:09:47.645Z,676
2017-03-23T16:10:57.553Z,716
2017-03-23T16:12:07.857Z,676
2017-03-23T16:13:18.080Z,692
2017-03-23T16:14:27.379Z,640
2017-03-23T16:15:36.677Z,600